sensor_id;sensor_type;location;lat;lon;timestamp;temperature;humidity
10270;DHT22;70826;50.930;5.334;2023-09-18T00:00:29;28.20;86.80
10270;DHT22;70826;50.930;5.334;2023-09-18T00:03:00;28.20;86.70
10270;DHT22;70826;50.930;5.334;2023-09-18T00:05:28;28.20;86.70
10270;DHT22;70826;50.930;5.334;2023-09-18T00:07:54;28.20;86.70
10270;DHT22;70826;50.930;5.334;2023-09-18T00:10:20;28.20;86.70
10270;DHT22;70826;50.930;5.334;2023-09-18T00:12:48;28.20;86.70
10270;DHT22;70826;50.930;5.334;2023-09-18T00:15:13;28.20;86.70
10270;DHT22;70826;50.930;5.334;2023-09-18T00:17:39;28.20;86.70
10270;DHT22;70826;50.930;5.334;2023-09-18T00:20:05;28.20;86.70
10270;DHT22;70826;50.930;5.334;2023-09-18T00:22:34;28.20;86.70
10270;DHT22;70826;50.930;5.334;2023-09-18T00:25:00;28.20;86.80
10270;DHT22;70826;50.930;5.334;2023-09-18T00:27:32;28.20;86.80
10270;DHT22;70826;50.930;5.334;2023-09-18T00:30:00;28.20;86.80
10270;DHT22;70826;50.930;5.334;2023-09-18T00:32:27;28.20;86.70
10270;DHT22;70826;50.930;5.334;2023-09-18T00:34:55;28.20;86.80
10270;DHT22;70826;50.930;5.334;2023-09-18T00:37:24;28.20;86.80
10270;DHT22;70826;50.930;5.334;2023-09-18T00:39:52;28.20;86.80
10270;DHT22;70826;50.930;5.334;2023-09-18T00:42:20;28.20;86.70
10270;DHT22;70826;50.930;5.334;2023-09-18T00:44:48;28.20;86.70
10270;DHT22;70826;50.930;5.334;2023-09-18T00:47:19;28.20;86.70
10270;DHT22;70826;50.930;5.334;2023-09-18T00:49:47;28.20;86.70
10270;DHT22;70826;50.930;5.334;2023-09-18T00:52:15;28.20;86.70
10270;DHT22;70826;50.930;5.334;2023-09-18T00:54:44;28.20;86.70
10270;DHT22;70826;50.930;5.334;2023-09-18T00:57:13;28.20;86.70
10270;DHT22;70826;50.930;5.334;2023-09-18T00:59:41;28.20;86.70
10270;DHT22;70826;50.930;5.334;2023-09-18T01:02:09;28.20;86.70
10270;DHT22;70826;50.930;5.334;2023-09-18T01:04:37;28.20;86.70
10270;DHT22;70826;50.930;5.334;2023-09-18T01:07:03;28.20;86.70
10270;DHT22;70826;50.930;5.334;2023-09-18T01:09:33;28.20;86.70
10270;DHT22;70826;50.930;5.334;2023-09-18T01:12:22;28.20;86.70
10270;DHT22;70826;50.930;5.334;2023-09-18T01:15:35;28.20;86.70
10270;DHT22;70826;50.930;5.334;2023-09-18T01:18:05;28.20;86.70
10270;DHT22;70826;50.930;5.334;2023-09-18T01:20:34;28.20;86.70
10270;DHT22;70826;50.930;5.334;2023-09-18T01:22:59;28.20;86.70
10270;DHT22;70826;50.930;5.334;2023-09-18T01:25:25;28.10;86.60
10270;DHT22;70826;50.930;5.334;2023-09-18T01:27:51;28.20;86.70
10270;DHT22;70826;50.930;5.334;2023-09-18T01:30:23;28.20;86.70
10270;DHT22;70826;50.930;5.334;2023-09-18T01:32:52;28.20;86.70
10270;DHT22;70826;50.930;5.334;2023-09-18T01:35:19;28.20;86.70
10270;DHT22;70826;50.930;5.334;2023-09-18T01:37:48;28.20;86.70
10270;DHT22;70826;50.930;5.334;2023-09-18T01:40:14;28.20;86.70
10270;DHT22;70826;50.930;5.334;2023-09-18T01:42:41;28.20;86.70
10270;DHT22;70826;50.930;5.334;2023-09-18T01:45:07;28.20;86.70
10270;DHT22;70826;50.930;5.334;2023-09-18T01:47:36;28.20;86.70
10270;DHT22;70826;50.930;5.334;2023-09-18T01:50:05;28.20;86.70
10270;DHT22;70826;50.930;5.334;2023-09-18T01:52:33;28.20;86.70
10270;DHT22;70826;50.930;5.334;2023-09-18T01:55:04;28.20;86.70
10270;DHT22;70826;50.930;5.334;2023-09-18T01:57:30;28.20;86.70
10270;DHT22;70826;50.930;5.334;2023-09-18T01:59:56;28.10;86.70
10270;DHT22;70826;50.930;5.334;2023-09-18T02:02:24;28.10;86.70
10270;DHT22;70826;50.930;5.334;2023-09-18T02:04:49;28.20;86.80
10270;DHT22;70826;50.930;5.334;2023-09-18T02:07:15;28.20;86.70
10270;DHT22;70826;50.930;5.334;2023-09-18T02:09:41;28.10;86.70
10270;DHT22;70826;50.930;5.334;2023-09-18T02:12:09;28.20;86.70
10270;DHT22;70826;50.930;5.334;2023-09-18T02:14:34;28.10;86.60
10270;DHT22;70826;50.930;5.334;2023-09-18T02:17:00;28.10;86.60
10270;DHT22;70826;50.930;5.334;2023-09-18T02:19:28;28.10;86.60
10270;DHT22;70826;50.930;5.334;2023-09-18T02:21:59;28.20;86.70
10270;DHT22;70826;50.930;5.334;2023-09-18T02:24:25;28.10;86.60
10270;DHT22;70826;50.930;5.334;2023-09-18T02:26:53;28.10;86.60
10270;DHT22;70826;50.930;5.334;2023-09-18T02:29:18;28.20;86.60
10270;DHT22;70826;50.930;5.334;2023-09-18T02:31:44;28.20;86.60
10270;DHT22;70826;50.930;5.334;2023-09-18T02:34:09;28.20;86.60
10270;DHT22;70826;50.930;5.334;2023-09-18T02:36:37;28.20;86.60
10270;DHT22;70826;50.930;5.334;2023-09-18T02:39:05;28.20;86.60
10270;DHT22;70826;50.930;5.334;2023-09-18T02:41:31;28.10;86.50
10270;DHT22;70826;50.930;5.334;2023-09-18T02:44:01;28.10;86.50
10270;DHT22;70826;50.930;5.334;2023-09-18T02:46:29;28.10;86.60
10270;DHT22;70826;50.930;5.334;2023-09-18T02:48:57;28.10;86.60
10270;DHT22;70826;50.930;5.334;2023-09-18T02:51:23;28.20;86.70
10270;DHT22;70826;50.930;5.334;2023-09-18T02:53:49;28.10;86.60
10270;DHT22;70826;50.930;5.334;2023-09-18T02:56:17;28.10;86.60
10270;DHT22;70826;50.930;5.334;2023-09-18T02:58:42;28.20;86.70
10270;DHT22;70826;50.930;5.334;2023-09-18T03:01:08;28.20;86.70
10270;DHT22;70826;50.930;5.334;2023-09-18T03:03:34;28.10;86.60
10270;DHT22;70826;50.930;5.334;2023-09-18T03:06:04;28.20;86.70
10270;DHT22;70826;50.930;5.334;2023-09-18T03:08:30;28.10;86.70
10270;DHT22;70826;50.930;5.334;2023-09-18T03:10:59;28.10;86.60
10270;DHT22;70826;50.930;5.334;2023-09-18T03:13:27;28.10;86.60
10270;DHT22;70826;50.930;5.334;2023-09-18T03:15:53;28.10;86.70
10270;DHT22;70826;50.930;5.334;2023-09-18T03:18:19;28.10;86.70
10270;DHT22;70826;50.930;5.334;2023-09-18T03:20:44;28.10;86.60
10270;DHT22;70826;50.930;5.334;2023-09-18T03:23:13;28.10;86.60
10270;DHT22;70826;50.930;5.334;2023-09-18T03:25:42;28.10;86.70
10270;DHT22;70826;50.930;5.334;2023-09-18T03:28:08;28.10;86.70
10270;DHT22;70826;50.930;5.334;2023-09-18T03:30:33;28.10;87.30
10270;DHT22;70826;50.930;5.334;2023-09-18T03:33:01;28.10;86.70
10270;DHT22;70826;50.930;5.334;2023-09-18T03:35:32;28.10;86.70
10270;DHT22;70826;50.930;5.334;2023-09-18T03:38:00;28.10;86.70
10270;DHT22;70826;50.930;5.334;2023-09-18T03:40:28;28.10;86.70
10270;DHT22;70826;50.930;5.334;2023-09-18T03:42:55;28.10;86.80
10270;DHT22;70826;50.930;5.334;2023-09-18T03:45:23;28.10;86.70
10270;DHT22;70826;50.930;5.334;2023-09-18T03:47:53;28.10;86.70
10270;DHT22;70826;50.930;5.334;2023-09-18T03:50:19;28.10;86.70
10270;DHT22;70826;50.930;5.334;2023-09-18T03:52:50;28.10;86.70
10270;DHT22;70826;50.930;5.334;2023-09-18T03:55:18;28.10;86.70
10270;DHT22;70826;50.930;5.334;2023-09-18T03:57:44;28.10;86.70
10270;DHT22;70826;50.930;5.334;2023-09-18T04:00:15;28.10;86.70
10270;DHT22;70826;50.930;5.334;2023-09-18T04:02:41;28.10;86.70
10270;DHT22;70826;50.930;5.334;2023-09-18T04:05:07;28.10;86.70
10270;DHT22;70826;50.930;5.334;2023-09-18T04:07:33;28.10;86.70
10270;DHT22;70826;50.930;5.334;2023-09-18T04:09:58;28.10;86.70
10270;DHT22;70826;50.930;5.334;2023-09-18T04:12:24;28.10;87.30
10270;DHT22;70826;50.930;5.334;2023-09-18T04:14:50;28.10;86.70
10270;DHT22;70826;50.930;5.334;2023-09-18T04:17:16;28.10;86.60
10270;DHT22;70826;50.930;5.334;2023-09-18T04:19:42;28.10;86.60
10270;DHT22;70826;50.930;5.334;2023-09-18T04:22:13;28.10;86.60
10270;DHT22;70826;50.930;5.334;2023-09-18T04:24:43;28.10;86.70
10270;DHT22;70826;50.930;5.334;2023-09-18T04:27:09;28.10;86.70
10270;DHT22;70826;50.930;5.334;2023-09-18T04:29:37;28.10;86.60
10270;DHT22;70826;50.930;5.334;2023-09-18T04:32:06;28.10;86.70
10270;DHT22;70826;50.930;5.334;2023-09-18T04:34:34;28.10;86.70
10270;DHT22;70826;50.930;5.334;2023-09-18T04:37:00;28.00;86.60
10270;DHT22;70826;50.930;5.334;2023-09-18T04:39:26;28.00;86.70
10270;DHT22;70826;50.930;5.334;2023-09-18T04:41:53;28.00;86.70
10270;DHT22;70826;50.930;5.334;2023-09-18T04:44:19;28.10;86.70
10270;DHT22;70826;50.930;5.334;2023-09-18T04:46:45;28.10;86.70
10270;DHT22;70826;50.930;5.334;2023-09-18T04:49:13;28.10;86.70
10270;DHT22;70826;50.930;5.334;2023-09-18T04:51:40;28.10;86.70
10270;DHT22;70826;50.930;5.334;2023-09-18T04:54:07;28.00;86.70
10270;DHT22;70826;50.930;5.334;2023-09-18T04:56:37;28.10;86.70
10270;DHT22;70826;50.930;5.334;2023-09-18T04:59:03;28.00;86.70
10270;DHT22;70826;50.930;5.334;2023-09-18T05:01:34;28.00;86.60
10270;DHT22;70826;50.930;5.334;2023-09-18T05:04:02;28.00;86.70
10270;DHT22;70826;50.930;5.334;2023-09-18T05:06:28;28.00;86.60
10270;DHT22;70826;50.930;5.334;2023-09-18T05:08:54;28.00;86.60
10270;DHT22;70826;50.930;5.334;2023-09-18T05:11:20;28.00;86.60
10270;DHT22;70826;50.930;5.334;2023-09-18T05:13:46;28.00;86.60
10270;DHT22;70826;50.930;5.334;2023-09-18T05:16:12;28.00;86.60
10270;DHT22;70826;50.930;5.334;2023-09-18T05:18:38;28.00;86.60
10270;DHT22;70826;50.930;5.334;2023-09-18T05:21:06;28.00;86.60
10270;DHT22;70826;50.930;5.334;2023-09-18T05:23:35;28.10;86.60
10270;DHT22;70826;50.930;5.334;2023-09-18T05:26:03;28.10;86.60
10270;DHT22;70826;50.930;5.334;2023-09-18T05:28:29;28.10;86.60
10270;DHT22;70826;50.930;5.334;2023-09-18T05:30:57;28.10;86.60
10270;DHT22;70826;50.930;5.334;2023-09-18T05:33:25;28.10;86.50
10270;DHT22;70826;50.930;5.334;2023-09-18T05:35:53;28.10;86.50
10270;DHT22;70826;50.930;5.334;2023-09-18T05:38:21;28.10;86.50
10270;DHT22;70826;50.930;5.334;2023-09-18T05:40:49;28.00;86.40
10270;DHT22;70826;50.930;5.334;2023-09-18T05:43:15;28.10;86.50
10270;DHT22;70826;50.930;5.334;2023-09-18T05:45:43;28.10;86.50
10270;DHT22;70826;50.930;5.334;2023-09-18T05:48:11;28.10;86.40
10270;DHT22;70826;50.930;5.334;2023-09-18T05:50:38;28.10;86.50
10270;DHT22;70826;50.930;5.334;2023-09-18T05:53:04;28.10;86.40
10270;DHT22;70826;50.930;5.334;2023-09-18T05:55:33;28.10;87.00
10270;DHT22;70826;50.930;5.334;2023-09-18T05:58:01;28.10;86.40
10270;DHT22;70826;50.930;5.334;2023-09-18T06:00:31;28.10;86.40
10270;DHT22;70826;50.930;5.334;2023-09-18T06:02:57;28.10;86.40
10270;DHT22;70826;50.930;5.334;2023-09-18T06:05:23;28.00;86.30
10270;DHT22;70826;50.930;5.334;2023-09-18T06:07:52;28.00;86.30
10270;DHT22;70826;50.930;5.334;2023-09-18T06:10:22;28.00;86.20
10270;DHT22;70826;50.930;5.334;2023-09-18T06:12:54;28.00;86.20
10270;DHT22;70826;50.930;5.334;2023-09-18T06:15:19;28.00;86.20
10270;DHT22;70826;50.930;5.334;2023-09-18T06:17:45;28.00;86.20
10270;DHT22;70826;50.930;5.334;2023-09-18T06:20:12;28.00;86.20
10270;DHT22;70826;50.930;5.334;2023-09-18T06:22:46;28.00;86.20
10270;DHT22;70826;50.930;5.334;2023-09-18T06:25:16;28.00;86.20
10270;DHT22;70826;50.930;5.334;2023-09-18T06:27:44;28.00;86.10
10270;DHT22;70826;50.930;5.334;2023-09-18T06:30:12;28.10;86.20
10270;DHT22;70826;50.930;5.334;2023-09-18T06:32:43;28.00;86.10
10270;DHT22;70826;50.930;5.334;2023-09-18T06:35:08;28.00;86.10
10270;DHT22;70826;50.930;5.334;2023-09-18T06:37:36;28.00;86.10
10270;DHT22;70826;50.930;5.334;2023-09-18T06:40:02;28.00;86.20
10270;DHT22;70826;50.930;5.334;2023-09-18T06:42:29;28.00;86.10
10270;DHT22;70826;50.930;5.334;2023-09-18T06:44:54;28.00;86.10
10270;DHT22;70826;50.930;5.334;2023-09-18T06:47:21;28.00;86.10
10270;DHT22;70826;50.930;5.334;2023-09-18T06:49:51;28.00;86.10
10270;DHT22;70826;50.930;5.334;2023-09-18T06:52:17;28.00;86.10
10270;DHT22;70826;50.930;5.334;2023-09-18T06:54:45;28.00;86.10
10270;DHT22;70826;50.930;5.334;2023-09-18T06:57:15;28.00;86.10
10270;DHT22;70826;50.930;5.334;2023-09-18T06:59:43;28.00;86.00
10270;DHT22;70826;50.930;5.334;2023-09-18T07:02:14;28.00;86.00
10270;DHT22;70826;50.930;5.334;2023-09-18T07:04:41;28.00;86.00
10270;DHT22;70826;50.930;5.334;2023-09-18T07:07:14;28.00;86.00
10270;DHT22;70826;50.930;5.334;2023-09-18T07:09:49;28.00;86.00
10270;DHT22;70826;50.930;5.334;2023-09-18T07:12:17;28.00;85.90
10270;DHT22;70826;50.930;5.334;2023-09-18T07:14:50;28.00;85.90
10270;DHT22;70826;50.930;5.334;2023-09-18T07:17:21;28.00;86.00
10270;DHT22;70826;50.930;5.334;2023-09-18T07:19:46;28.00;85.90
10270;DHT22;70826;50.930;5.334;2023-09-18T07:22:17;28.00;85.90
10270;DHT22;70826;50.930;5.334;2023-09-18T07:24:42;28.00;85.90
10270;DHT22;70826;50.930;5.334;2023-09-18T07:27:13;28.00;85.90
10270;DHT22;70826;50.930;5.334;2023-09-18T07:29:38;28.00;85.90
10270;DHT22;70826;50.930;5.334;2023-09-18T07:32:04;28.00;85.90
10270;DHT22;70826;50.930;5.334;2023-09-18T07:34:33;28.00;85.80
10270;DHT22;70826;50.930;5.334;2023-09-18T07:37:03;28.00;86.40
10270;DHT22;70826;50.930;5.334;2023-09-18T07:39:29;28.00;85.90
10270;DHT22;70826;50.930;5.334;2023-09-18T07:42:01;28.00;85.90
10270;DHT22;70826;50.930;5.334;2023-09-18T07:44:29;28.00;85.80
10270;DHT22;70826;50.930;5.334;2023-09-18T07:46:57;28.00;85.80
10270;DHT22;70826;50.930;5.334;2023-09-18T07:49:29;28.00;85.80
10270;DHT22;70826;50.930;5.334;2023-09-18T07:51:55;28.00;85.70
10270;DHT22;70826;50.930;5.334;2023-09-18T07:54:21;28.00;85.70
10270;DHT22;70826;50.930;5.334;2023-09-18T07:56:49;28.00;85.70
10270;DHT22;70826;50.930;5.334;2023-09-18T07:59:22;28.00;85.70
10270;DHT22;70826;50.930;5.334;2023-09-18T08:01:53;28.00;85.60
10270;DHT22;70826;50.930;5.334;2023-09-18T08:04:21;28.00;85.70
10270;DHT22;70826;50.930;5.334;2023-09-18T08:06:52;28.00;85.70
10270;DHT22;70826;50.930;5.334;2023-09-18T08:09:20;28.00;85.70
10270;DHT22;70826;50.930;5.334;2023-09-18T08:11:52;28.00;85.70
10270;DHT22;70826;50.930;5.334;2023-09-18T08:14:21;28.00;85.60
10270;DHT22;70826;50.930;5.334;2023-09-18T08:16:56;28.00;85.60
10270;DHT22;70826;50.930;5.334;2023-09-18T08:19:27;28.00;85.60
10270;DHT22;70826;50.930;5.334;2023-09-18T08:21:58;28.00;85.50
10270;DHT22;70826;50.930;5.334;2023-09-18T08:24:27;28.00;85.50
10270;DHT22;70826;50.930;5.334;2023-09-18T08:26:53;28.00;85.50
10270;DHT22;70826;50.930;5.334;2023-09-18T08:29:24;28.00;85.50
10270;DHT22;70826;50.930;5.334;2023-09-18T08:31:50;28.00;85.50
10270;DHT22;70826;50.930;5.334;2023-09-18T08:34:18;28.00;85.50
10270;DHT22;70826;50.930;5.334;2023-09-18T08:36:49;28.00;85.50
10270;DHT22;70826;50.930;5.334;2023-09-18T08:39:17;28.00;85.50
10270;DHT22;70826;50.930;5.334;2023-09-18T08:41:43;28.00;85.50
10270;DHT22;70826;50.930;5.334;2023-09-18T08:44:14;28.00;85.50
10270;DHT22;70826;50.930;5.334;2023-09-18T08:46:40;28.00;85.50
10270;DHT22;70826;50.930;5.334;2023-09-18T08:49:10;28.00;85.50
10270;DHT22;70826;50.930;5.334;2023-09-18T08:51:38;28.00;85.40
10270;DHT22;70826;50.930;5.334;2023-09-18T08:54:06;28.00;85.40
10270;DHT22;70826;50.930;5.334;2023-09-18T08:56:35;28.00;85.40
10270;DHT22;70826;50.930;5.334;2023-09-18T08:59:03;28.00;85.40
10270;DHT22;70826;50.930;5.334;2023-09-18T09:01:31;28.00;85.40
10270;DHT22;70826;50.930;5.334;2023-09-18T09:03:59;28.00;85.40
10270;DHT22;70826;50.930;5.334;2023-09-18T09:06:28;28.00;85.40
10270;DHT22;70826;50.930;5.334;2023-09-18T09:08:56;28.00;85.40
10270;DHT22;70826;50.930;5.334;2023-09-18T09:11:22;28.00;85.40
10270;DHT22;70826;50.930;5.334;2023-09-18T09:16:40;28.00;85.40
10270;DHT22;70826;50.930;5.334;2023-09-18T09:19:07;28.00;85.30
10270;DHT22;70826;50.930;5.334;2023-09-18T09:21:42;28.00;85.30
10270;DHT22;70826;50.930;5.334;2023-09-18T09:24:11;28.00;85.30
10270;DHT22;70826;50.930;5.334;2023-09-18T09:26:43;28.00;85.30
10270;DHT22;70826;50.930;5.334;2023-09-18T09:29:19;28.00;85.30
10270;DHT22;70826;50.930;5.334;2023-09-18T09:31:45;28.00;85.30
10270;DHT22;70826;50.930;5.334;2023-09-18T09:34:25;28.00;85.30
10270;DHT22;70826;50.930;5.334;2023-09-18T09:36:55;28.00;85.70
10270;DHT22;70826;50.930;5.334;2023-09-18T09:39:22;28.00;86.10
10270;DHT22;70826;50.930;5.334;2023-09-18T09:41:54;28.00;86.20
10270;DHT22;70826;50.930;5.334;2023-09-18T09:44:25;28.00;86.30
10270;DHT22;70826;50.930;5.334;2023-09-18T09:46:51;28.00;86.40
10270;DHT22;70826;50.930;5.334;2023-09-18T09:49:19;28.00;86.50
10270;DHT22;70826;50.930;5.334;2023-09-18T09:51:50;28.00;86.50
10270;DHT22;70826;50.930;5.334;2023-09-18T09:54:34;28.10;86.60
10270;DHT22;70826;50.930;5.334;2023-09-18T09:57:02;28.20;86.70
10270;DHT22;70826;50.930;5.334;2023-09-18T09:59:28;28.20;86.50
10270;DHT22;70826;50.930;5.334;2023-09-18T10:01:55;28.30;86.60
10270;DHT22;70826;50.930;5.334;2023-09-18T10:04:22;28.30;86.70
10270;DHT22;70826;50.930;5.334;2023-09-18T10:06:54;28.30;86.70
10270;DHT22;70826;50.930;5.334;2023-09-18T10:09:22;28.40;86.70
10270;DHT22;70826;50.930;5.334;2023-09-18T10:11:54;28.40;86.60
10270;DHT22;70826;50.930;5.334;2023-09-18T10:14:34;28.50;86.70
10270;DHT22;70826;50.930;5.334;2023-09-18T10:17:18;28.50;86.70
10270;DHT22;70826;50.930;5.334;2023-09-18T10:22:31;28.60;86.70
10270;DHT22;70826;50.930;5.334;2023-09-18T10:25:15;28.70;86.70
10270;DHT22;70826;50.930;5.334;2023-09-18T10:27:48;28.70;86.80
10270;DHT22;70826;50.930;5.334;2023-09-18T10:30:19;28.70;86.90
10270;DHT22;70826;50.930;5.334;2023-09-18T10:32:50;28.80;86.90
10270;DHT22;70826;50.930;5.334;2023-09-18T10:35:15;28.80;86.80
10270;DHT22;70826;50.930;5.334;2023-09-18T10:37:45;28.80;86.70
10270;DHT22;70826;50.930;5.334;2023-09-18T10:40:16;28.90;86.70
10270;DHT22;70826;50.930;5.334;2023-09-18T10:42:42;29.00;86.70
10270;DHT22;70826;50.930;5.334;2023-09-18T10:45:11;29.00;86.60
10270;DHT22;70826;50.930;5.334;2023-09-18T10:47:42;29.00;86.60
10270;DHT22;70826;50.930;5.334;2023-09-18T10:50:10;29.00;86.50
10270;DHT22;70826;50.930;5.334;2023-09-18T10:52:43;29.10;86.50
10270;DHT22;70826;50.930;5.334;2023-09-18T10:55:12;29.10;86.50
10270;DHT22;70826;50.930;5.334;2023-09-18T10:57:52;29.10;86.30
10270;DHT22;70826;50.930;5.334;2023-09-18T11:00:18;29.20;86.20
10270;DHT22;70826;50.930;5.334;2023-09-18T11:02:52;29.20;86.00
10270;DHT22;70826;50.930;5.334;2023-09-18T11:05:32;29.20;85.70
10270;DHT22;70826;50.930;5.334;2023-09-18T11:08:27;29.20;85.50
10270;DHT22;70826;50.930;5.334;2023-09-18T11:11:09;29.20;85.30
10270;DHT22;70826;50.930;5.334;2023-09-18T11:21:27;29.10;84.70
10270;DHT22;70826;50.930;5.334;2023-09-18T11:24:15;29.10;84.60
10270;DHT22;70826;50.930;5.334;2023-09-18T11:26:46;29.10;84.50
10270;DHT22;70826;50.930;5.334;2023-09-18T11:29:25;29.10;84.40
10270;DHT22;70826;50.930;5.334;2023-09-18T11:31:59;29.00;84.40
10270;DHT22;70826;50.930;5.334;2023-09-18T11:34:30;29.00;84.30
10270;DHT22;70826;50.930;5.334;2023-09-18T11:37:18;29.00;84.30
10270;DHT22;70826;50.930;5.334;2023-09-18T11:39:47;29.00;84.50
10270;DHT22;70826;50.930;5.334;2023-09-18T11:42:19;29.00;84.60
10270;DHT22;70826;50.930;5.334;2023-09-18T11:44:45;29.00;84.60
10270;DHT22;70826;50.930;5.334;2023-09-18T11:47:23;29.00;84.60
10270;DHT22;70826;50.930;5.334;2023-09-18T11:49:51;28.90;84.70
10270;DHT22;70826;50.930;5.334;2023-09-18T11:52:23;29.00;84.70
10270;DHT22;70826;50.930;5.334;2023-09-18T11:54:52;29.00;84.70
10270;DHT22;70826;50.930;5.334;2023-09-18T11:57:19;29.00;84.70
10270;DHT22;70826;50.930;5.334;2023-09-18T11:59:47;29.00;84.70
10270;DHT22;70826;50.930;5.334;2023-09-18T12:02:24;29.00;84.80
10270;DHT22;70826;50.930;5.334;2023-09-18T12:04:54;29.00;84.90
10270;DHT22;70826;50.930;5.334;2023-09-18T12:07:20;29.10;84.90
10270;DHT22;70826;50.930;5.334;2023-09-18T12:09:46;29.10;85.00
10270;DHT22;70826;50.930;5.334;2023-09-18T12:12:12;29.10;85.00
10270;DHT22;70826;50.930;5.334;2023-09-18T12:14:40;29.10;84.90
10270;DHT22;70826;50.930;5.334;2023-09-18T12:17:08;29.10;84.80
10270;DHT22;70826;50.930;5.334;2023-09-18T12:19:36;29.20;84.90
10270;DHT22;70826;50.930;5.334;2023-09-18T12:22:02;29.20;84.70
10270;DHT22;70826;50.930;5.334;2023-09-18T12:24:29;29.20;84.60
10270;DHT22;70826;50.930;5.334;2023-09-18T12:26:55;29.30;84.60
10270;DHT22;70826;50.930;5.334;2023-09-18T12:29:22;29.30;84.60
10270;DHT22;70826;50.930;5.334;2023-09-18T12:31:48;29.40;84.60
10270;DHT22;70826;50.930;5.334;2023-09-18T12:34:21;29.40;84.50
10270;DHT22;70826;50.930;5.334;2023-09-18T12:36:48;29.40;84.50
10270;DHT22;70826;50.930;5.334;2023-09-18T12:39:14;29.50;84.40
10270;DHT22;70826;50.930;5.334;2023-09-18T12:41:44;29.50;84.20
10270;DHT22;70826;50.930;5.334;2023-09-18T12:44:11;29.50;84.90
10270;DHT22;70826;50.930;5.334;2023-09-18T12:46:37;29.50;84.20
10270;DHT22;70826;50.930;5.334;2023-09-18T12:49:19;29.50;84.10
10270;DHT22;70826;50.930;5.334;2023-09-18T12:52:12;29.50;84.20
10270;DHT22;70826;50.930;5.334;2023-09-18T12:54:45;29.60;84.30
10270;DHT22;70826;50.930;5.334;2023-09-18T12:57:20;29.60;84.10
10270;DHT22;70826;50.930;5.334;2023-09-18T12:59:46;29.60;84.10
10270;DHT22;70826;50.930;5.334;2023-09-18T13:02:18;29.60;84.00
10270;DHT22;70826;50.930;5.334;2023-09-18T13:04:54;29.60;84.00
10270;DHT22;70826;50.930;5.334;2023-09-18T13:07:23;29.60;83.90
10270;DHT22;70826;50.930;5.334;2023-09-18T13:10:22;29.70;84.00
10270;DHT22;70826;50.930;5.334;2023-09-18T13:15:33;29.70;84.10
10270;DHT22;70826;50.930;5.334;2023-09-18T13:18:09;29.70;84.10
10270;DHT22;70826;50.930;5.334;2023-09-18T13:20:35;29.70;84.10
10270;DHT22;70826;50.930;5.334;2023-09-18T13:23:01;29.70;84.10
10270;DHT22;70826;50.930;5.334;2023-09-18T13:25:34;29.70;84.10
10270;DHT22;70826;50.930;5.334;2023-09-18T13:28:01;29.70;84.10
10270;DHT22;70826;50.930;5.334;2023-09-18T13:30:29;29.80;84.10
10270;DHT22;70826;50.930;5.334;2023-09-18T13:33:15;29.80;84.10
10270;DHT22;70826;50.930;5.334;2023-09-18T13:35:43;29.80;84.10
10270;DHT22;70826;50.930;5.334;2023-09-18T13:38:11;29.80;84.20
10270;DHT22;70826;50.930;5.334;2023-09-18T13:40:43;29.80;84.30
10270;DHT22;70826;50.930;5.334;2023-09-18T13:43:14;29.80;84.40
10270;DHT22;70826;50.930;5.334;2023-09-18T13:45:42;29.80;84.40
10270;DHT22;70826;50.930;5.334;2023-09-18T13:48:13;29.80;84.50
10270;DHT22;70826;50.930;5.334;2023-09-18T13:50:43;29.80;84.50
10270;DHT22;70826;50.930;5.334;2023-09-18T13:53:14;29.80;84.90
10270;DHT22;70826;50.930;5.334;2023-09-18T13:55:40;29.90;84.20
10270;DHT22;70826;50.930;5.334;2023-09-18T13:58:06;29.80;84.10
10270;DHT22;70826;50.930;5.334;2023-09-18T14:00:32;29.80;84.00
10270;DHT22;70826;50.930;5.334;2023-09-18T14:02:58;29.90;83.80
10270;DHT22;70826;50.930;5.334;2023-09-18T14:05:24;29.80;84.20
10270;DHT22;70826;50.930;5.334;2023-09-18T14:07:51;29.80;83.60
10270;DHT22;70826;50.930;5.334;2023-09-18T14:10:22;29.80;83.50
10270;DHT22;70826;50.930;5.334;2023-09-18T14:12:49;29.80;83.40
10270;DHT22;70826;50.930;5.334;2023-09-18T14:15:16;29.80;83.30
10270;DHT22;70826;50.930;5.334;2023-09-18T14:17:41;29.70;83.10
10270;DHT22;70826;50.930;5.334;2023-09-18T14:20:07;29.70;83.00
10270;DHT22;70826;50.930;5.334;2023-09-18T14:22:36;29.70;82.90
10270;DHT22;70826;50.930;5.334;2023-09-18T14:25:05;29.70;82.70
10270;DHT22;70826;50.930;5.334;2023-09-18T14:27:34;29.70;82.70
10270;DHT22;70826;50.930;5.334;2023-09-18T14:30:00;29.60;82.60
10270;DHT22;70826;50.930;5.334;2023-09-18T14:32:31;29.60;82.60
10270;DHT22;70826;50.930;5.334;2023-09-18T14:34:57;29.50;82.50
10270;DHT22;70826;50.930;5.334;2023-09-18T14:37:28;29.50;82.50
10270;DHT22;70826;50.930;5.334;2023-09-18T14:39:54;29.50;82.50
10270;DHT22;70826;50.930;5.334;2023-09-18T14:42:22;29.50;82.50
10270;DHT22;70826;50.930;5.334;2023-09-18T14:44:51;29.40;82.50
10270;DHT22;70826;50.930;5.334;2023-09-18T14:47:19;29.40;82.60
10270;DHT22;70826;50.930;5.334;2023-09-18T14:49:45;29.30;82.50
10270;DHT22;70826;50.930;5.334;2023-09-18T14:52:15;29.30;82.50
10270;DHT22;70826;50.930;5.334;2023-09-18T14:54:47;29.30;82.50
10270;DHT22;70826;50.930;5.334;2023-09-18T14:57:12;29.30;82.50
10270;DHT22;70826;50.930;5.334;2023-09-18T14:59:38;29.20;82.50
10270;DHT22;70826;50.930;5.334;2023-09-18T15:02:06;29.20;82.50
10270;DHT22;70826;50.930;5.334;2023-09-18T15:04:33;29.20;82.60
10270;DHT22;70826;50.930;5.334;2023-09-18T15:07:01;29.20;82.60
10270;DHT22;70826;50.930;5.334;2023-09-18T15:09:31;29.10;82.50
10270;DHT22;70826;50.930;5.334;2023-09-18T15:12:02;29.10;82.60
10270;DHT22;70826;50.930;5.334;2023-09-18T15:14:33;29.10;82.60
10270;DHT22;70826;50.930;5.334;2023-09-18T15:17:04;29.10;82.70
10270;DHT22;70826;50.930;5.334;2023-09-18T15:19:29;29.10;82.70
10270;DHT22;70826;50.930;5.334;2023-09-18T15:21:58;29.00;82.60
10270;DHT22;70826;50.930;5.334;2023-09-18T15:24:29;29.00;82.60
10270;DHT22;70826;50.930;5.334;2023-09-18T15:26:59;29.00;82.60
10270;DHT22;70826;50.930;5.334;2023-09-18T15:29:30;29.00;82.60
10270;DHT22;70826;50.930;5.334;2023-09-18T15:31:58;29.00;82.60
10270;DHT22;70826;50.930;5.334;2023-09-18T15:34:27;29.00;82.60
10270;DHT22;70826;50.930;5.334;2023-09-18T15:36:54;29.00;82.60
10270;DHT22;70826;50.930;5.334;2023-09-18T15:39:21;28.90;82.50
10270;DHT22;70826;50.930;5.334;2023-09-18T15:41:50;28.90;82.50
10270;DHT22;70826;50.930;5.334;2023-09-18T15:44:17;28.90;82.50
10270;DHT22;70826;50.930;5.334;2023-09-18T15:46:47;28.90;82.50
10270;DHT22;70826;50.930;5.334;2023-09-18T15:49:12;28.90;82.50
10270;DHT22;70826;50.930;5.334;2023-09-18T15:51:45;28.90;82.40
10270;DHT22;70826;50.930;5.334;2023-09-18T15:54:13;28.80;82.40
10270;DHT22;70826;50.930;5.334;2023-09-18T15:56:39;28.80;82.40